Decoded Metar for MMCL (CULIACAN in MEXICO) (IATA:CUL) | Meteo·Mobile Aviation Weather
aviador You're here:

MMCL Decoded Metar

CULIACAN in MEXICO
Report Time2020-02-22 20:44:00
UTC Time2020-02-22 21:12:10
Flight Rules vfr VFR
Wind230° at 04 kt
W.Decomp.*RWY 20: 3.7 kt HW 1.4 kt RCW
Visibility9999 m
Phenomena:N/A
Clouds:Few 100 Hf
Broken 250 Hf
Expected CloudBase > 3,600 ft AGL from Temp-Dew spread
Ceiling25,000 ft
Temp30°C (ISA +15)
Dew Point21°C (59% RH)
Heat Index32.6°C
QNH1015 hPa
Density Alt2,136 ft
Elevation128 ft
Report Wrong Elevation
Raw Report
METAR MMCL 222044Z 23004KT 10SM FEW100 BKN250 30/21 A2997 RMK SLP152
57022 920 8/038 HZY=

Extra information for MMCL:More info

Metar Taf Metar & Taf Last 4 Metars F.Rules Stats Wind Profile Meteogram Temp Stats Airport Information Weather charts Add Link Nearby VenuesMetar ALERT Operation Metar Decoded Social comments